createdAt,value
2022-10-11T00:02:30.511Z,8.52
2022-10-11T00:05:09.591Z,7.50
2022-10-11T00:07:47.215Z,9.65
2022-10-11T00:10:35.821Z,7.82
2022-10-11T00:13:12.823Z,7.78
2022-10-11T00:15:51.181Z,10.40
2022-10-11T00:18:29.206Z,8.25
2022-10-11T00:21:12.151Z,8.48
2022-10-11T00:23:50.652Z,6.45
2022-10-11T00:26:28.899Z,7.93
2022-10-11T00:29:06.884Z,13.60
2022-10-11T00:31:43.458Z,8.52
2022-10-11T00:34:21.877Z,9.32
2022-10-11T00:36:59.933Z,9.60
2022-10-11T00:39:38.271Z,11.32
2022-10-11T00:42:17.653Z,7.40
2022-10-11T00:45:28.185Z,12.20
2022-10-11T00:48:15.184Z,11.82
2022-10-11T00:50:52.694Z,9.45
2022-10-11T00:53:31.863Z,7.43
2022-10-11T00:56:21.372Z,10.57
2022-10-11T00:59:00.302Z,6.72
2022-10-11T01:01:38.588Z,10.55
2022-10-11T01:04:16.292Z,8.63
2022-10-11T01:06:54.113Z,10.43
2022-10-11T01:09:34.834Z,8.30
2022-10-11T01:12:23.649Z,7.80
2022-10-11T01:15:18.246Z,7.53
2022-10-11T01:18:16.157Z,14.07
2022-10-11T01:21:09.247Z,9.10
2022-10-11T01:24:31.260Z,6.40
2022-10-11T01:27:25.847Z,10.15
2022-10-11T01:30:26.807Z,7.53
2022-10-11T01:33:15.787Z,12.13
2022-10-11T01:36:17.755Z,8.75
2022-10-11T01:39:09.083Z,10.10
2022-10-11T01:41:50.871Z,9.93
2022-10-11T01:44:28.665Z,7.32
2022-10-11T01:47:06.541Z,9.55
2022-10-11T01:49:46.401Z,7.93
2022-10-11T01:52:25.799Z,9.02
2022-10-11T01:55:50.855Z,8.20
2022-10-11T01:59:08.266Z,11.95
2022-10-11T02:01:57.115Z,8.50
2022-10-11T02:04:56.724Z,9.93
2022-10-11T02:07:56.948Z,6.80
2022-10-11T02:10:45.376Z,13.02
2022-10-11T02:13:54.178Z,9.60
2022-10-11T02:16:46.853Z,10.60
2022-10-11T02:19:29.448Z,9.10
2022-10-11T02:22:13.511Z,12.45
2022-10-11T02:24:52.979Z,9.48
2022-10-11T02:27:33.922Z,6.80
2022-10-11T02:30:12.466Z,6.18
2022-10-11T02:32:54.491Z,9.50
2022-10-11T02:35:39.522Z,9.85
2022-10-11T02:38:25.406Z,7.85
2022-10-11T02:41:31.578Z,10.95
2022-10-11T02:44:34.260Z,9.13
2022-10-11T02:47:11.551Z,9.20
2022-10-11T02:49:49.399Z,12.23
2022-10-11T02:52:27.834Z,8.55
2022-10-11T02:55:06.726Z,11.48
2022-10-11T02:57:44.203Z,7.38
2022-10-11T03:00:22.213Z,11.25
2022-10-11T03:03:00.121Z,11.27
2022-10-11T03:05:41.663Z,11.32
2022-10-11T03:08:21.686Z,8.27
2022-10-11T03:10:59.724Z,6.53
2022-10-11T03:13:37.684Z,11.80
2022-10-11T03:16:15.049Z,10.30
2022-10-11T03:18:52.541Z,8.32
2022-10-11T03:21:29.274Z,8.75
2022-10-11T03:24:07.728Z,11.45
2022-10-11T03:26:45.686Z,8.20
2022-10-11T03:29:23.948Z,8.85
2022-10-11T03:32:04.472Z,9.50
2022-10-11T03:34:41.815Z,11.70
2022-10-11T03:37:18.694Z,11.13
2022-10-11T03:39:56.640Z,13.40
2022-10-11T03:42:33.317Z,10.73
2022-10-11T03:45:11.493Z,15.15
2022-10-11T03:47:51.277Z,10.43
2022-10-11T03:50:29.469Z,9.23
2022-10-11T03:53:08.053Z,9.52
2022-10-11T03:55:54.007Z,13.55
2022-10-11T03:58:32.161Z,10.02
2022-10-11T04:01:10.497Z,8.32
2022-10-11T04:03:48.675Z,14.02
2022-10-11T04:06:26.662Z,8.82
2022-10-11T04:09:05.361Z,12.68
2022-10-11T04:11:43.027Z,9.63
2022-10-11T04:14:23.462Z,15.07
2022-10-11T04:17:01.126Z,8.38
2022-10-11T04:19:41.784Z,13.80
2022-10-11T04:22:19.187Z,7.97
2022-10-11T04:24:57.450Z,12.18
2022-10-11T04:27:35.779Z,9.98
2022-10-11T04:30:14.449Z,11.27
2022-10-11T04:32:52.069Z,9.35
2022-10-11T04:35:30.286Z,13.68
2022-10-11T04:38:08.673Z,16.80
2022-10-11T04:40:46.882Z,10.20
2022-10-11T04:43:24.892Z,9.32
2022-10-11T04:46:03.926Z,13.73
2022-10-11T04:48:41.311Z,12.18
2022-10-11T04:51:19.890Z,14.02
2022-10-11T04:53:57.590Z,10.30
2022-10-11T04:56:34.510Z,10.40
2022-10-11T04:59:12.528Z,8.98
2022-10-11T05:01:51.381Z,13.93
2022-10-11T05:04:29.138Z,10.38
2022-10-11T05:07:07.163Z,10.02
2022-10-11T05:09:45.300Z,10.77
2022-10-11T05:12:22.050Z,12.55
2022-10-11T05:15:00.639Z,9.60
2022-10-11T05:17:38.361Z,16.17
2022-10-11T05:20:17.102Z,11.27
2022-10-11T05:22:55.024Z,12.68
2022-10-11T05:25:35.234Z,10.50
2022-10-11T05:28:12.907Z,9.73
2022-10-11T05:30:51.021Z,9.32
2022-10-11T05:33:29.238Z,9.10
2022-10-11T05:36:14.203Z,11.73
2022-10-11T05:38:52.394Z,9.13
2022-10-11T05:41:30.343Z,13.05
2022-10-11T05:44:12.646Z,10.95
2022-10-11T05:46:49.814Z,12.25
2022-10-11T05:49:30.231Z,8.50
2022-10-11T05:52:11.034Z,12.48
2022-10-11T05:54:49.395Z,10.70
2022-10-11T05:57:27.522Z,11.30
2022-10-11T06:00:09.574Z,9.90
2022-10-11T06:02:50.751Z,12.73
2022-10-11T06:05:28.647Z,8.68
2022-10-11T06:08:11.192Z,16.53
2022-10-11T06:10:51.843Z,16.30
2022-10-11T06:13:29.512Z,9.80
2022-10-11T06:16:08.601Z,13.80
2022-10-11T06:18:46.035Z,13.18
2022-10-11T06:21:24.760Z,22.20
2022-10-11T06:24:02.830Z,12.40
2022-10-11T06:26:40.876Z,12.88
2022-10-11T06:29:32.259Z,17.98
2022-10-11T06:32:27.200Z,15.40
2022-10-11T06:35:06.229Z,21.08
2022-10-11T06:37:43.445Z,15.73
2022-10-11T06:40:21.754Z,24.02
2022-10-11T06:43:28.023Z,32.88
2022-10-11T06:46:07.421Z,27.00
2022-10-11T06:48:48.582Z,23.67
2022-10-11T06:51:30.224Z,21.48
2022-10-11T06:54:08.096Z,12.15
2022-10-11T06:56:46.462Z,13.98
2022-10-11T06:59:24.438Z,23.42
2022-10-11T07:02:02.588Z,12.65
2022-10-11T07:04:41.089Z,12.48
2022-10-11T07:07:18.848Z,14.27
2022-10-11T07:09:57.156Z,11.70
2022-10-11T07:12:35.282Z,8.85
2022-10-11T07:15:13.655Z,13.27
2022-10-11T07:17:51.681Z,13.55
2022-10-11T07:20:30.084Z,18.98
2022-10-11T07:23:08.144Z,13.55
2022-10-11T07:25:46.789Z,11.95
2022-10-11T07:28:25.056Z,14.88
2022-10-11T07:31:22.524Z,15.05
2022-10-11T07:34:02.184Z,13.65
2022-10-11T07:36:40.470Z,18.60
2022-10-11T07:39:18.223Z,12.47
2022-10-11T07:41:56.484Z,11.23
2022-10-11T07:44:58.578Z,11.93
2022-10-11T07:47:35.306Z,10.13
2022-10-11T07:50:14.082Z,9.85
2022-10-11T07:52:53.532Z,10.20
2022-10-11T07:55:40.757Z,10.52
2022-10-11T07:58:21.614Z,12.57
2022-10-11T08:00:59.382Z,13.07
2022-10-11T08:03:39.387Z,19.55
2022-10-11T08:06:23.173Z,9.35
2022-10-11T08:09:01.579Z,11.88
2022-10-11T08:11:38.507Z,10.23
2022-10-11T08:14:16.740Z,10.27
2022-10-11T08:16:54.752Z,11.60
2022-10-11T08:19:32.983Z,9.18
2022-10-11T08:22:09.502Z,15.75
2022-10-11T08:24:49.730Z,17.58
2022-10-11T08:27:27.714Z,11.85
2022-10-11T08:30:06.807Z,13.18
2022-10-11T08:32:46.096Z,13.35
2022-10-11T08:35:24.571Z,16.00
2022-10-11T08:38:02.033Z,20.25
2022-10-11T08:40:55.954Z,23.42
2022-10-11T08:44:02.516Z,14.57
2022-10-11T08:47:22.849Z,15.45
2022-10-11T08:50:29.274Z,18.95
2022-10-11T08:53:58.063Z,20.13
2022-10-11T08:57:15.733Z,11.75
2022-10-11T09:00:22.662Z,16.85
2022-10-11T09:03:42.116Z,13.63
2022-10-11T09:06:55.555Z,13.52
2022-10-11T09:10:36.329Z,23.60
2022-10-11T09:13:55.597Z,18.52
2022-10-11T09:17:47.497Z,20.45
2022-10-11T09:21:30.345Z,19.50
2022-10-11T09:25:03.202Z,20.17
2022-10-11T09:28:46.643Z,15.27
2022-10-11T09:31:56.804Z,17.33
2022-10-11T09:35:15.982Z,17.13
2022-10-11T09:38:46.891Z,16.73
2022-10-11T09:42:03.847Z,18.10
2022-10-11T09:45:18.679Z,17.73
2022-10-11T09:48:33.716Z,18.33
2022-10-11T09:51:43.823Z,18.23
2022-10-11T09:54:54.732Z,14.52
2022-10-11T09:58:00.806Z,17.42
2022-10-11T10:01:14.219Z,17.75
2022-10-11T10:04:20.092Z,17.52
2022-10-11T10:07:26.081Z,22.80
2022-10-11T10:10:48.692Z,22.08
2022-10-11T10:13:56.354Z,16.33
2022-10-11T10:17:08.695Z,15.98
2022-10-11T10:20:27.675Z,12.75
2022-10-11T10:23:36.511Z,21.70
2022-10-11T10:26:42.310Z,14.30
2022-10-11T10:30:09.031Z,16.92
2022-10-11T10:33:17.205Z,17.38
2022-10-11T10:36:36.173Z,13.50
2022-10-11T10:44:12.480Z,19.80
2022-10-11T10:48:11.334Z,18.60
2022-10-11T10:51:47.798Z,17.13
2022-10-11T10:55:33.607Z,13.45
2022-10-11T10:59:13.298Z,19.73
2022-10-11T11:02:52.825Z,15.40
2022-10-11T11:06:08.836Z,19.95
2022-10-11T11:09:39.034Z,18.02
2022-10-11T11:13:22.545Z,16.58
2022-10-11T11:16:49.091Z,16.98
2022-10-11T11:20:27.864Z,18.77
2022-10-11T11:24:15.773Z,19.80
2022-10-11T11:27:54.474Z,17.08
2022-10-11T11:31:25.108Z,17.88
2022-10-11T11:34:43.682Z,17.63
2022-10-11T11:38:06.175Z,19.05
2022-10-11T11:41:26.688Z,16.83
2022-10-11T11:44:42.841Z,20.40
2022-10-11T11:48:05.666Z,19.63
2022-10-11T11:51:43.178Z,22.73
2022-10-11T11:55:10.838Z,17.90
2022-10-11T11:58:42.220Z,23.58
2022-10-11T12:02:06.772Z,14.55
2022-10-11T12:05:24.362Z,21.73
2022-10-11T12:08:36.724Z,20.42
2022-10-11T12:12:09.099Z,35.17
2022-10-11T12:15:27.113Z,20.92
2022-10-11T12:18:57.691Z,19.38
2022-10-11T12:22:40.542Z,20.08
2022-10-11T12:26:28.164Z,16.63
2022-10-11T12:29:45.317Z,18.08
2022-10-11T12:33:24.585Z,20.10
2022-10-11T12:36:38.373Z,22.30
2022-10-11T12:39:59.695Z,19.95
2022-10-11T12:43:14.053Z,20.52
2022-10-11T12:46:28.056Z,16.80
2022-10-11T12:49:57.055Z,14.98
2022-10-11T12:53:38.386Z,15.52
2022-10-11T12:57:23.071Z,16.83
2022-10-11T13:01:03.398Z,18.92
2022-10-11T13:04:19.215Z,22.65
2022-10-11T13:07:30.305Z,66.00
2022-10-11T13:10:44.803Z,28.70
2022-10-11T13:13:59.177Z,21.40
2022-10-11T13:17:38.043Z,17.58
2022-10-11T13:20:50.440Z,28.25
2022-10-11T13:24:15.583Z,23.17
2022-10-11T13:27:27.810Z,20.55
2022-10-11T13:30:43.952Z,24.52
2022-10-11T13:33:57.232Z,25.38
2022-10-11T13:37:18.031Z,33.00
2022-10-11T13:40:29.906Z,26.33
2022-10-11T13:43:42.591Z,25.05
2022-10-11T13:46:54.536Z,25.90
2022-10-11T13:50:20.115Z,27.55
2022-10-11T13:53:31.641Z,22.85
2022-10-11T13:56:48.041Z,20.75
2022-10-11T14:00:02.236Z,21.65
2022-10-11T14:03:24.801Z,21.50
2022-10-11T14:06:59.568Z,22.15
2022-10-11T14:10:20.556Z,20.75
2022-10-11T14:13:44.324Z,25.63
2022-10-11T14:17:12.455Z,24.38
2022-10-11T14:20:39.547Z,16.60
2022-10-11T14:23:56.880Z,19.02
2022-10-11T14:27:17.632Z,17.33
2022-10-11T14:30:31.496Z,21.45
2022-10-11T14:33:43.090Z,24.73
2022-10-11T14:36:54.546Z,19.05
2022-10-11T14:40:24.108Z,18.35
2022-10-11T14:43:35.274Z,20.67
2022-10-11T14:46:47.507Z,16.30
2022-10-11T14:49:59.428Z,20.55
2022-10-11T14:53:12.204Z,21.40
2022-10-11T14:56:23.057Z,18.50
2022-10-11T14:59:37.771Z,22.27
2022-10-11T15:02:53.532Z,16.95
2022-10-11T15:06:06.611Z,23.02
2022-10-11T15:09:20.822Z,28.67
2022-10-11T15:12:31.915Z,17.77
2022-10-11T15:15:43.561Z,22.85
2022-10-11T15:18:55.053Z,17.80
2022-10-11T15:22:06.169Z,24.90
2022-10-11T15:25:17.109Z,24.95
2022-10-11T15:28:32.957Z,23.58
2022-10-11T15:31:44.910Z,26.42
2022-10-11T15:34:55.942Z,21.63
2022-10-11T15:38:20.273Z,24.10
2022-10-11T15:41:31.227Z,20.80
2022-10-11T15:44:42.259Z,18.73
2022-10-11T15:47:53.599Z,18.83
2022-10-11T15:51:04.766Z,25.30
2022-10-11T15:54:16.618Z,22.40
2022-10-11T15:57:28.210Z,25.65
2022-10-11T16:00:39.070Z,33.72
2022-10-11T16:03:50.947Z,36.15
2022-10-11T16:07:02.560Z,32.25
2022-10-11T16:10:14.697Z,50.60
2022-10-11T16:13:26.244Z,26.95
2022-10-11T16:16:37.940Z,22.30
2022-10-11T16:19:50.389Z,21.50
2022-10-11T16:23:01.010Z,37.63
2022-10-11T16:26:14.071Z,31.38
2022-10-11T16:29:25.636Z,24.48
2022-10-11T16:32:37.481Z,30.58
2022-10-11T16:35:49.137Z,39.30
2022-10-11T16:39:02.044Z,23.73
2022-10-11T16:42:13.562Z,24.60
2022-10-11T16:45:24.999Z,25.30
2022-10-11T16:48:36.254Z,28.40
2022-10-11T16:51:47.110Z,26.65
2022-10-11T16:54:58.441Z,23.92
2022-10-11T17:38:36.477Z,34.42
2022-10-11T17:41:42.824Z,31.15
2022-10-11T17:44:47.953Z,24.10
2022-10-11T17:47:52.572Z,22.75
2022-10-11T17:50:57.258Z,24.25
2022-10-11T17:54:02.621Z,16.35
2022-10-11T17:57:07.392Z,19.42
2022-10-11T18:00:13.157Z,20.42
2022-10-11T18:03:18.439Z,17.33
2022-10-11T18:06:25.258Z,17.38
2022-10-11T18:09:30.032Z,16.63
2022-10-11T18:12:34.846Z,15.23
2022-10-11T18:15:39.635Z,15.32
2022-10-11T18:18:44.638Z,18.55
2022-10-11T18:21:52.032Z,18.10
2022-10-11T18:24:57.051Z,16.27
2022-10-11T18:28:02.049Z,19.13
2022-10-11T18:31:14.409Z,23.25
2022-10-11T18:34:19.779Z,24.00
2022-10-11T18:37:24.963Z,15.30
2022-10-11T18:40:30.472Z,13.43
2022-10-11T18:43:35.945Z,16.25
2022-10-11T18:46:41.089Z,13.90
2022-10-11T18:49:45.879Z,15.57
2022-10-11T18:52:50.744Z,16.63
2022-10-11T18:56:03.389Z,15.82
2022-10-11T18:59:08.765Z,17.13
2022-10-11T19:02:13.814Z,27.02
2022-10-11T19:05:18.779Z,24.40
2022-10-11T19:08:23.490Z,37.65
2022-10-11T19:11:28.807Z,40.78
2022-10-11T19:14:33.956Z,43.47
2022-10-11T19:17:38.422Z,34.65
2022-10-11T19:20:43.144Z,44.60
2022-10-11T19:23:48.841Z,43.63
2022-10-11T19:26:59.702Z,39.47
2022-10-11T19:30:07.672Z,47.85
2022-10-11T19:33:12.574Z,38.92
2022-10-11T19:36:18.218Z,40.72
2022-10-11T19:39:24.611Z,46.83
2022-10-11T19:42:29.969Z,50.13
2022-10-11T19:45:35.601Z,41.08
2022-10-11T19:48:43.421Z,42.17
2022-10-11T19:51:48.583Z,58.55
2022-10-11T19:54:53.359Z,46.97
2022-10-11T19:57:58.187Z,43.92
2022-10-11T20:01:06.626Z,44.22
2022-10-11T20:04:27.408Z,43.42
2022-10-11T20:07:37.005Z,45.83
2022-10-11T20:10:41.777Z,44.08
2022-10-11T20:13:47.480Z,41.97
2022-10-11T20:16:52.971Z,44.72
2022-10-11T20:19:58.037Z,42.03
2022-10-11T20:23:02.882Z,54.60
2022-10-11T20:26:11.695Z,54.22
2022-10-11T20:29:16.773Z,52.10
2022-10-11T20:32:21.906Z,49.00
2022-10-11T20:35:26.905Z,42.25
2022-10-11T20:38:33.589Z,46.33
2022-10-11T20:41:42.660Z,38.47
2022-10-11T20:44:49.311Z,39.08
2022-10-11T20:47:54.219Z,50.50
2022-10-11T20:50:59.141Z,44.47
2022-10-11T20:54:04.739Z,37.22
2022-10-11T20:57:09.791Z,38.45
2022-10-11T21:00:15.057Z,32.15
2022-10-11T21:03:20.097Z,33.95
2022-10-11T21:06:25.936Z,38.83
2022-10-11T21:09:30.843Z,32.78
2022-10-11T21:12:35.902Z,36.33
2022-10-11T21:15:41.198Z,30.55
2022-10-11T21:18:51.650Z,28.67
2022-10-11T21:21:56.440Z,24.17
2022-10-11T21:25:01.477Z,18.70
2022-10-11T21:28:07.232Z,25.60
2022-10-11T21:31:15.219Z,23.92
2022-10-11T21:34:20.416Z,32.10
2022-10-11T21:37:25.406Z,16.65
2022-10-11T21:40:30.340Z,19.98
2022-10-11T21:43:37.959Z,19.38
2022-10-11T21:50:09.040Z,18.83
2022-10-11T21:53:14.145Z,21.88
2022-10-11T21:56:19.503Z,13.68
2022-10-11T21:59:24.595Z,12.15
2022-10-11T22:02:29.414Z,16.83
2022-10-11T22:05:34.198Z,15.50
2022-10-11T22:08:39.994Z,15.88
2022-10-11T22:11:45.133Z,10.75
2022-10-11T22:14:50.222Z,18.65
2022-10-11T22:17:55.027Z,15.80
2022-10-11T22:21:17.720Z,14.95
2022-10-11T22:24:22.609Z,15.70
2022-10-11T22:27:27.423Z,16.40
2022-10-11T22:30:32.482Z,13.77
2022-10-11T22:33:37.701Z,10.23
2022-10-11T22:36:42.922Z,20.98
2022-10-11T22:39:47.701Z,20.10
2022-10-11T22:42:52.621Z,16.77
2022-10-11T22:45:57.391Z,16.40
2022-10-11T22:49:02.265Z,14.38
2022-10-11T22:52:07.257Z,12.88
2022-10-11T22:55:16.243Z,12.02
2022-10-11T22:58:24.975Z,11.35
2022-10-11T23:01:30.265Z,11.55
2022-10-11T23:04:35.110Z,10.95
2022-10-11T23:07:40.098Z,13.48
2022-10-11T23:10:44.782Z,21.88
2022-10-11T23:13:49.611Z,25.02
2022-10-11T23:16:54.622Z,26.67
2022-10-11T23:19:59.753Z,27.67
2022-10-11T23:23:04.530Z,44.30
2022-10-11T23:26:13.514Z,48.92
2022-10-11T23:29:18.477Z,52.38
2022-10-11T23:32:23.653Z,35.30
2022-10-11T23:35:28.452Z,15.60
2022-10-11T23:38:33.226Z,15.95
2022-10-11T23:41:38.143Z,13.65
2022-10-11T23:44:43.163Z,24.48
2022-10-11T23:47:47.974Z,21.25
2022-10-11T23:50:52.944Z,16.23
2022-10-11T23:53:57.874Z,13.88
2022-10-11T23:57:02.610Z,13.30
